PUERTO AVENTURAS QRO MX current weather conditions

sailwx.info

Wind from 131 at 2 knots gusting 8

Air temperature 24.4° C
Dewpoint 21.9° C

Last reported at 2020-Jan-26 20:45 UTC.
Time now 2020-Jan-26 22:03 UTC

Location: N 20°30' W 087°14'.
View on Google Maps.

See reports from other nearby stations

  
Tides and Currents Weather Stations Pressure Air Temp Water Temp Dewpoint Dewpoint Depression Visibility Wind Speed Wind Dir Waves Ship Positions
date/time (UTC)wind fromknots sea level pressurealtimeterstation pressurevisibilityair tempwater tempwave heightnotes
2020-Jan-26 20:45 131 2 gusting 8 24.4
2020-Jan-26 19:45 105 3 gusting 9 26.4
2020-Jan-26 18:45 081 6 gusting 13 27.2
2020-Jan-26 17:45 095 4 gusting 9 28.0
2020-Jan-26 16:45 098 4 gusting 8 28.2
2020-Jan-26 15:45 101 4 gusting 9 27.6
2020-Jan-26 14:45 098 1 gusting 4 25.7
2020-Jan-26 13:45 040 2 gusting 5 20.5
2020-Jan-26 12:45 012 3 gusting 5 18.9
2020-Jan-26 11:45 338 3 gusting 5 18.5
2020-Jan-26 10:45 354 2 gusting 5 18.9
2020-Jan-26 09:45 009 2 gusting 4 18.9
2020-Jan-26 08:45 315 1 gusting 3 18.7
2020-Jan-26 07:45 015 1 gusting 3 19.6
2020-Jan-26 06:45 020 2 gusting 5 19.7
2020-Jan-26 05:45 019 3 gusting 6 19.9
2020-Jan-26 04:45 001 4 gusting 7 20.0
2020-Jan-26 03:45 359 3 gusting 6 20.4
2020-Jan-26 02:45 007 3 gusting 7 21.0
2020-Jan-26 01:45 026 4 gusting 9 22.3
2020-Jan-26 00:45 040 2 gusting 4 23.6
2020-Jan-25 23:45 075 4 gusting 9 25.1
2020-Jan-25 22:45 087 5 gusting 9 25.7
2020-Jan-25 21:45 098 5 gusting 10 26.8
2020-Jan-25 20:45 098 4 gusting 9 27.5
2020-Jan-25 19:45 096 5 gusting 11 27.1
2020-Jan-25 18:45 098 4 gusting 9 27.6
2020-Jan-25 17:45 090 4 gusting 10 28.6
2020-Jan-25 16:45 047 4 gusting 8 27.8
2020-Jan-25 15:45 002 5 gusting 9 25.8
2020-Jan-25 14:45 008 4 gusting 9 23.0
2020-Jan-25 13:45 338 3 gusting 6 19.0
2020-Jan-25 12:45 328 3 gusting 5 16.8
2020-Jan-25 11:45 334 3 gusting 5 16.6
2020-Jan-25 10:45 332 3 gusting 5 15.9
2020-Jan-25 09:45 328 3 gusting 5 16.4
2020-Jan-25 08:45 337 3 gusting 4 16.4
2020-Jan-25 07:45 316 2 gusting 3 16.6
2020-Jan-25 06:45 325 3 gusting 5 17.1
2020-Jan-25 05:45 317 2 gusting 4 18.1
2020-Jan-25 04:45 003 2 gusting 4 19.4
2020-Jan-25 03:45 333 1 gusting 2 19.5
2020-Jan-25 02:45 352 2 gusting 3 20.5
2020-Jan-25 01:45 001 4 gusting 8 21.5
2020-Jan-25 00:45 003 4 gusting 8 23.1
2020-Jan-24 23:45 019 3 gusting 7 24.6
2020-Jan-24 22:45 062 4 gusting 9 25.5